sensor_id;sensor_type;location;lat;lon;timestamp;P1;durP1;ratioP1;P2;durP2;ratioP2
28836;SDS011;50669;50.982;11.022;2023-05-10T00:02:18;1.88;;;1.10;;
28836;SDS011;50669;50.982;11.022;2023-05-10T00:04:44;1.20;;;0.95;;
28836;SDS011;50669;50.982;11.022;2023-05-10T00:07:09;2.75;;;0.98;;
28836;SDS011;50669;50.982;11.022;2023-05-10T00:09:35;1.42;;;0.88;;
28836;SDS011;50669;50.982;11.022;2023-05-10T00:12:01;1.08;;;0.98;;
28836;SDS011;50669;50.982;11.022;2023-05-10T00:14:26;1.65;;;1.05;;
28836;SDS011;50669;50.982;11.022;2023-05-10T00:16:55;2.45;;;1.00;;
28836;SDS011;50669;50.982;11.022;2023-05-10T00:19:20;3.33;;;1.20;;
28836;SDS011;50669;50.982;11.022;2023-05-10T00:21:48;1.58;;;1.10;;
28836;SDS011;50669;50.982;11.022;2023-05-10T00:24:16;1.27;;;1.00;;
28836;SDS011;50669;50.982;11.022;2023-05-10T00:26:44;1.98;;;1.00;;
28836;SDS011;50669;50.982;11.022;2023-05-10T00:29:10;1.83;;;0.95;;
28836;SDS011;50669;50.982;11.022;2023-05-10T00:31:35;2.65;;;0.90;;
28836;SDS011;50669;50.982;11.022;2023-05-10T00:34:01;2.08;;;0.88;;
28836;SDS011;50669;50.982;11.022;2023-05-10T00:36:27;1.75;;;0.90;;
28836;SDS011;50669;50.982;11.022;2023-05-10T00:38:54;2.25;;;1.02;;
28836;SDS011;50669;50.982;11.022;2023-05-10T00:41:20;1.55;;;0.93;;
28836;SDS011;50669;50.982;11.022;2023-05-10T00:43:46;1.10;;;0.90;;
28836;SDS011;50669;50.982;11.022;2023-05-10T00:46:12;1.35;;;1.10;;
28836;SDS011;50669;50.982;11.022;2023-05-10T00:48:40;1.17;;;0.82;;
28836;SDS011;50669;50.982;11.022;2023-05-10T00:51:05;1.55;;;0.95;;
28836;SDS011;50669;50.982;11.022;2023-05-10T00:53:34;1.30;;;0.80;;
28836;SDS011;50669;50.982;11.022;2023-05-10T00:56:00;1.05;;;0.95;;
28836;SDS011;50669;50.982;11.022;2023-05-10T00:58:26;1.63;;;0.95;;
28836;SDS011;50669;50.982;11.022;2023-05-10T01:00:54;1.55;;;0.80;;
28836;SDS011;50669;50.982;11.022;2023-05-10T01:03:22;1.50;;;1.00;;
28836;SDS011;50669;50.982;11.022;2023-05-10T01:05:48;1.98;;;0.90;;
28836;SDS011;50669;50.982;11.022;2023-05-10T01:08:14;1.23;;;0.90;;
28836;SDS011;50669;50.982;11.022;2023-05-10T01:10:45;1.63;;;1.05;;
28836;SDS011;50669;50.982;11.022;2023-05-10T01:13:11;0.80;;;0.80;;
28836;SDS011;50669;50.982;11.022;2023-05-10T01:15:38;2.65;;;0.77;;
28836;SDS011;50669;50.982;11.022;2023-05-10T01:18:07;0.85;;;0.80;;
28836;SDS011;50669;50.982;11.022;2023-05-10T01:20:35;1.17;;;0.90;;
28836;SDS011;50669;50.982;11.022;2023-05-10T01:23:22;2.35;;;0.90;;
28836;SDS011;50669;50.982;11.022;2023-05-10T01:35:15;1.33;;;1.10;;
28836;SDS011;50669;50.982;11.022;2023-05-10T01:37:42;1.20;;;0.90;;
28836;SDS011;50669;50.982;11.022;2023-05-10T01:40:32;2.08;;;1.33;;
28836;SDS011;50669;50.982;11.022;2023-05-10T01:43:05;1.25;;;0.90;;
28836;SDS011;50669;50.982;11.022;2023-05-10T01:45:41;1.98;;;0.80;;
28836;SDS011;50669;50.982;11.022;2023-05-10T01:48:18;3.05;;;0.82;;
28836;SDS011;50669;50.982;11.022;2023-05-10T01:50:47;1.05;;;0.80;;
28836;SDS011;50669;50.982;11.022;2023-05-10T01:53:17;2.00;;;0.90;;
28836;SDS011;50669;50.982;11.022;2023-05-10T01:55:46;1.15;;;0.80;;
28836;SDS011;50669;50.982;11.022;2023-05-10T01:58:15;2.05;;;1.00;;
28836;SDS011;50669;50.982;11.022;2023-05-10T02:00:45;1.02;;;0.80;;
28836;SDS011;50669;50.982;11.022;2023-05-10T02:03:12;1.10;;;1.00;;
28836;SDS011;50669;50.982;11.022;2023-05-10T02:05:39;1.00;;;0.90;;
28836;SDS011;50669;50.982;11.022;2023-05-10T02:08:09;1.58;;;0.70;;
28836;SDS011;50669;50.982;11.022;2023-05-10T02:10:36;0.82;;;0.65;;
28836;SDS011;50669;50.982;11.022;2023-05-10T02:13:05;1.65;;;0.70;;
28836;SDS011;50669;50.982;11.022;2023-05-10T02:15:35;0.93;;;0.70;;
28836;SDS011;50669;50.982;11.022;2023-05-10T02:18:05;1.45;;;0.90;;
28836;SDS011;50669;50.982;11.022;2023-05-10T02:20:32;1.10;;;1.00;;
28836;SDS011;50669;50.982;11.022;2023-05-10T02:23:02;1.52;;;0.80;;
28836;SDS011;50669;50.982;11.022;2023-05-10T02:25:29;1.02;;;0.90;;
28836;SDS011;50669;50.982;11.022;2023-05-10T02:27:56;1.33;;;0.90;;
28836;SDS011;50669;50.982;11.022;2023-05-10T02:30:25;0.90;;;0.80;;
28836;SDS011;50669;50.982;11.022;2023-05-10T02:32:51;2.17;;;1.00;;
28836;SDS011;50669;50.982;11.022;2023-05-10T02:35:17;1.13;;;0.98;;
28836;SDS011;50669;50.982;11.022;2023-05-10T02:37:44;1.30;;;1.02;;
28836;SDS011;50669;50.982;11.022;2023-05-10T02:40:14;1.10;;;1.00;;
28836;SDS011;50669;50.982;11.022;2023-05-10T02:42:42;0.90;;;0.70;;
28836;SDS011;50669;50.982;11.022;2023-05-10T02:45:14;2.13;;;0.88;;
28836;SDS011;50669;50.982;11.022;2023-05-10T02:47:43;1.10;;;0.90;;
28836;SDS011;50669;50.982;11.022;2023-05-10T02:50:11;1.08;;;0.77;;
28836;SDS011;50669;50.982;11.022;2023-05-10T02:52:39;1.80;;;0.80;;
28836;SDS011;50669;50.982;11.022;2023-05-10T02:55:08;1.70;;;0.90;;
28836;SDS011;50669;50.982;11.022;2023-05-10T02:57:40;1.13;;;0.90;;
28836;SDS011;50669;50.982;11.022;2023-05-10T03:00:16;1.15;;;0.80;;
28836;SDS011;50669;50.982;11.022;2023-05-10T03:02:41;1.40;;;1.00;;
28836;SDS011;50669;50.982;11.022;2023-05-10T03:05:10;1.08;;;0.90;;
28836;SDS011;50669;50.982;11.022;2023-05-10T03:07:38;0.98;;;0.88;;
28836;SDS011;50669;50.982;11.022;2023-05-10T03:10:03;2.85;;;0.77;;
28836;SDS011;50669;50.982;11.022;2023-05-10T03:15:07;0.90;;;0.70;;
28836;SDS011;50669;50.982;11.022;2023-05-10T03:23:20;1.45;;;0.95;;
28836;SDS011;50669;50.982;11.022;2023-05-10T03:25:49;0.70;;;0.70;;
28836;SDS011;50669;50.982;11.022;2023-05-10T03:28:16;0.77;;;0.77;;
28836;SDS011;50669;50.982;11.022;2023-05-10T03:30:43;0.95;;;0.77;;
28836;SDS011;50669;50.982;11.022;2023-05-10T03:33:10;1.17;;;0.88;;
28836;SDS011;50669;50.982;11.022;2023-05-10T03:35:35;0.90;;;0.73;;
28836;SDS011;50669;50.982;11.022;2023-05-10T03:38:04;2.38;;;0.80;;
28836;SDS011;50669;50.982;11.022;2023-05-10T03:40:29;1.52;;;0.75;;
28836;SDS011;50669;50.982;11.022;2023-05-10T03:42:57;0.95;;;0.88;;
28836;SDS011;50669;50.982;11.022;2023-05-10T03:45:23;1.02;;;0.90;;
28836;SDS011;50669;50.982;11.022;2023-05-10T03:47:51;0.88;;;0.80;;
28836;SDS011;50669;50.982;11.022;2023-05-10T03:50:16;1.98;;;0.90;;
28836;SDS011;50669;50.982;11.022;2023-05-10T03:52:43;0.98;;;0.80;;
28836;SDS011;50669;50.982;11.022;2023-05-10T03:55:09;1.00;;;0.88;;
28836;SDS011;50669;50.982;11.022;2023-05-10T03:57:35;1.83;;;0.77;;
28836;SDS011;50669;50.982;11.022;2023-05-10T04:00:01;0.85;;;0.77;;
28836;SDS011;50669;50.982;11.022;2023-05-10T04:02:28;0.85;;;0.70;;
28836;SDS011;50669;50.982;11.022;2023-05-10T04:04:56;1.10;;;1.00;;
28836;SDS011;50669;50.982;11.022;2023-05-10T04:07:21;0.95;;;0.70;;
28836;SDS011;50669;50.982;11.022;2023-05-10T04:09:47;0.70;;;0.70;;
28836;SDS011;50669;50.982;11.022;2023-05-10T04:12:13;0.80;;;0.80;;
28836;SDS011;50669;50.982;11.022;2023-05-10T04:14:40;1.02;;;0.73;;
28836;SDS011;50669;50.982;11.022;2023-05-10T04:17:06;1.05;;;0.80;;
28836;SDS011;50669;50.982;11.022;2023-05-10T04:19:35;1.20;;;1.05;;
28836;SDS011;50669;50.982;11.022;2023-05-10T04:22:03;0.70;;;0.70;;
28836;SDS011;50669;50.982;11.022;2023-05-10T04:24:29;1.30;;;0.75;;
28836;SDS011;50669;50.982;11.022;2023-05-10T04:26:54;1.25;;;0.80;;
28836;SDS011;50669;50.982;11.022;2023-05-10T04:29:20;3.42;;;2.50;;
28836;SDS011;50669;50.982;11.022;2023-05-10T04:31:46;4.97;;;3.20;;
28836;SDS011;50669;50.982;11.022;2023-05-10T04:34:14;3.83;;;3.30;;
28836;SDS011;50669;50.982;11.022;2023-05-10T04:36:40;6.45;;;3.75;;
28836;SDS011;50669;50.982;11.022;2023-05-10T04:39:05;4.97;;;3.25;;
28836;SDS011;50669;50.982;11.022;2023-05-10T04:41:34;4.28;;;2.97;;
28836;SDS011;50669;50.982;11.022;2023-05-10T04:44:00;5.57;;;4.05;;
28836;SDS011;50669;50.982;11.022;2023-05-10T04:46:25;5.38;;;4.20;;
28836;SDS011;50669;50.982;11.022;2023-05-10T04:48:51;6.43;;;4.55;;
28836;SDS011;50669;50.982;11.022;2023-05-10T04:51:17;5.32;;;4.20;;
28836;SDS011;50669;50.982;11.022;2023-05-10T04:53:45;6.10;;;4.35;;
28836;SDS011;50669;50.982;11.022;2023-05-10T04:56:12;4.50;;;3.42;;
28836;SDS011;50669;50.982;11.022;2023-05-10T04:58:41;5.32;;;4.13;;
28836;SDS011;50669;50.982;11.022;2023-05-10T05:01:09;6.60;;;4.20;;
28836;SDS011;50669;50.982;11.022;2023-05-10T05:03:35;9.50;;;3.90;;
28836;SDS011;50669;50.982;11.022;2023-05-10T05:06:01;5.20;;;4.05;;
28836;SDS011;50669;50.982;11.022;2023-05-10T05:08:27;7.25;;;4.57;;
28836;SDS011;50669;50.982;11.022;2023-05-10T05:10:55;9.55;;;4.57;;
28836;SDS011;50669;50.982;11.022;2023-05-10T05:13:20;7.15;;;4.70;;
28836;SDS011;50669;50.982;11.022;2023-05-10T05:15:53;5.97;;;4.53;;
28836;SDS011;50669;50.982;11.022;2023-05-10T05:18:24;3.45;;;3.15;;
28836;SDS011;50669;50.982;11.022;2023-05-10T05:20:49;6.40;;;2.95;;
28836;SDS011;50669;50.982;11.022;2023-05-10T05:23:17;3.70;;;2.47;;
28836;SDS011;50669;50.982;11.022;2023-05-10T05:25:43;3.17;;;2.00;;
28836;SDS011;50669;50.982;11.022;2023-05-10T05:28:09;3.20;;;2.10;;
28836;SDS011;50669;50.982;11.022;2023-05-10T05:30:35;3.75;;;2.40;;
28836;SDS011;50669;50.982;11.022;2023-05-10T05:33:03;3.95;;;1.80;;
28836;SDS011;50669;50.982;11.022;2023-05-10T05:35:31;4.30;;;2.20;;
28836;SDS011;50669;50.982;11.022;2023-05-10T05:37:56;4.93;;;2.35;;
28836;SDS011;50669;50.982;11.022;2023-05-10T05:40:27;2.17;;;1.92;;
28836;SDS011;50669;50.982;11.022;2023-05-10T05:42:54;6.80;;;2.20;;
28836;SDS011;50669;50.982;11.022;2023-05-10T05:45:25;3.75;;;1.80;;
28836;SDS011;50669;50.982;11.022;2023-05-10T05:47:54;3.28;;;1.90;;
28836;SDS011;50669;50.982;11.022;2023-05-10T05:50:21;3.25;;;2.00;;
28836;SDS011;50669;50.982;11.022;2023-05-10T05:52:50;2.40;;;1.88;;
28836;SDS011;50669;50.982;11.022;2023-05-10T05:55:20;3.65;;;2.30;;
28836;SDS011;50669;50.982;11.022;2023-05-10T05:57:46;4.75;;;2.10;;
28836;SDS011;50669;50.982;11.022;2023-05-10T06:00:12;2.65;;;1.77;;
28836;SDS011;50669;50.982;11.022;2023-05-10T06:02:38;3.20;;;1.67;;
28836;SDS011;50669;50.982;11.022;2023-05-10T06:05:03;3.28;;;1.88;;
28836;SDS011;50669;50.982;11.022;2023-05-10T06:07:29;2.58;;;1.90;;
28836;SDS011;50669;50.982;11.022;2023-05-10T06:09:55;3.92;;;2.03;;
28836;SDS011;50669;50.982;11.022;2023-05-10T06:12:23;2.88;;;2.10;;
28836;SDS011;50669;50.982;11.022;2023-05-10T06:14:51;4.82;;;1.92;;
28836;SDS011;50669;50.982;11.022;2023-05-10T06:17:17;5.93;;;2.03;;
28836;SDS011;50669;50.982;11.022;2023-05-10T06:19:45;3.95;;;1.67;;
28836;SDS011;50669;50.982;11.022;2023-05-10T06:22:11;3.50;;;1.60;;
28836;SDS011;50669;50.982;11.022;2023-05-10T06:24:39;2.40;;;1.80;;
28836;SDS011;50669;50.982;11.022;2023-05-10T06:27:05;2.95;;;2.42;;
28836;SDS011;50669;50.982;11.022;2023-05-10T06:29:31;2.42;;;1.52;;
28836;SDS011;50669;50.982;11.022;2023-05-10T06:31:57;3.45;;;1.60;;
28836;SDS011;50669;50.982;11.022;2023-05-10T06:34:25;5.25;;;2.45;;
28836;SDS011;50669;50.982;11.022;2023-05-10T06:36:50;2.92;;;1.58;;
28836;SDS011;50669;50.982;11.022;2023-05-10T06:39:18;3.03;;;1.80;;
28836;SDS011;50669;50.982;11.022;2023-05-10T06:41:44;3.30;;;1.85;;
28836;SDS011;50669;50.982;11.022;2023-05-10T06:44:10;3.60;;;1.95;;
28836;SDS011;50669;50.982;11.022;2023-05-10T06:46:38;2.70;;;1.77;;
28836;SDS011;50669;50.982;11.022;2023-05-10T06:49:06;3.05;;;1.90;;
28836;SDS011;50669;50.982;11.022;2023-05-10T06:51:32;3.33;;;1.70;;
28836;SDS011;50669;50.982;11.022;2023-05-10T06:53:57;3.28;;;1.75;;
28836;SDS011;50669;50.982;11.022;2023-05-10T06:56:23;2.90;;;1.83;;
28836;SDS011;50669;50.982;11.022;2023-05-10T06:58:49;3.03;;;1.92;;
28836;SDS011;50669;50.982;11.022;2023-05-10T07:01:14;3.10;;;1.88;;
28836;SDS011;50669;50.982;11.022;2023-05-10T07:03:40;3.20;;;1.90;;
28836;SDS011;50669;50.982;11.022;2023-05-10T07:06:06;2.97;;;1.80;;
28836;SDS011;50669;50.982;11.022;2023-05-10T07:08:34;5.07;;;2.05;;
28836;SDS011;50669;50.982;11.022;2023-05-10T07:11:03;3.63;;;1.60;;
28836;SDS011;50669;50.982;11.022;2023-05-10T07:13:32;2.55;;;1.75;;
28836;SDS011;50669;50.982;11.022;2023-05-10T07:15:59;2.42;;;1.50;;
28836;SDS011;50669;50.982;11.022;2023-05-10T07:18:25;1.60;;;1.50;;
28836;SDS011;50669;50.982;11.022;2023-05-10T07:20:51;3.28;;;1.85;;
28836;SDS011;50669;50.982;11.022;2023-05-10T07:23:19;3.40;;;1.75;;
28836;SDS011;50669;50.982;11.022;2023-05-10T07:25:46;3.15;;;1.80;;
28836;SDS011;50669;50.982;11.022;2023-05-10T07:28:12;2.55;;;1.67;;
28836;SDS011;50669;50.982;11.022;2023-05-10T07:30:39;1.77;;;1.48;;
28836;SDS011;50669;50.982;11.022;2023-05-10T07:33:06;3.08;;;1.73;;
28836;SDS011;50669;50.982;11.022;2023-05-10T07:35:35;3.97;;;1.83;;
28836;SDS011;50669;50.982;11.022;2023-05-10T07:38:01;4.07;;;1.67;;
28836;SDS011;50669;50.982;11.022;2023-05-10T07:40:27;3.35;;;2.03;;
28836;SDS011;50669;50.982;11.022;2023-05-10T07:42:53;2.15;;;1.45;;
28836;SDS011;50669;50.982;11.022;2023-05-10T07:45:21;3.20;;;1.77;;
28836;SDS011;50669;50.982;11.022;2023-05-10T07:47:50;3.00;;;1.52;;
28836;SDS011;50669;50.982;11.022;2023-05-10T07:50:15;2.38;;;1.13;;
28836;SDS011;50669;50.982;11.022;2023-05-10T07:52:44;2.35;;;1.52;;
28836;SDS011;50669;50.982;11.022;2023-05-10T07:55:09;1.92;;;1.45;;
28836;SDS011;50669;50.982;11.022;2023-05-10T07:57:35;2.78;;;1.40;;
28836;SDS011;50669;50.982;11.022;2023-05-10T08:00:03;3.72;;;1.33;;
28836;SDS011;50669;50.982;11.022;2023-05-10T08:02:30;2.42;;;1.55;;
28836;SDS011;50669;50.982;11.022;2023-05-10T08:04:56;3.72;;;1.52;;
28836;SDS011;50669;50.982;11.022;2023-05-10T08:07:24;3.50;;;1.88;;
28836;SDS011;50669;50.982;11.022;2023-05-10T08:09:51;1.80;;;1.35;;
28836;SDS011;50669;50.982;11.022;2023-05-10T08:12:17;5.75;;;1.63;;
28836;SDS011;50669;50.982;11.022;2023-05-10T08:14:43;2.70;;;1.65;;
28836;SDS011;50669;50.982;11.022;2023-05-10T08:17:11;3.13;;;1.40;;
28836;SDS011;50669;50.982;11.022;2023-05-10T08:19:36;2.13;;;1.70;;
28836;SDS011;50669;50.982;11.022;2023-05-10T08:22:02;2.95;;;1.73;;
28836;SDS011;50669;50.982;11.022;2023-05-10T08:24:27;2.42;;;1.60;;
28836;SDS011;50669;50.982;11.022;2023-05-10T08:26:55;1.95;;;1.48;;
28836;SDS011;50669;50.982;11.022;2023-05-10T08:29:21;2.28;;;1.52;;
28836;SDS011;50669;50.982;11.022;2023-05-10T08:31:49;1.63;;;1.27;;
28836;SDS011;50669;50.982;11.022;2023-05-10T08:34:14;1.70;;;1.45;;
28836;SDS011;50669;50.982;11.022;2023-05-10T08:36:40;2.10;;;1.67;;
28836;SDS011;50669;50.982;11.022;2023-05-10T08:39:06;2.40;;;1.23;;
28836;SDS011;50669;50.982;11.022;2023-05-10T08:41:32;2.13;;;1.67;;
28836;SDS011;50669;50.982;11.022;2023-05-10T08:44:00;2.15;;;1.60;;
28836;SDS011;50669;50.982;11.022;2023-05-10T08:46:29;2.17;;;1.70;;
28836;SDS011;50669;50.982;11.022;2023-05-10T08:48:55;2.55;;;1.38;;
28836;SDS011;50669;50.982;11.022;2023-05-10T08:51:24;2.13;;;1.58;;
28836;SDS011;50669;50.982;11.022;2023-05-10T08:53:54;2.15;;;1.73;;
28836;SDS011;50669;50.982;11.022;2023-05-10T08:56:20;2.05;;;1.42;;
28836;SDS011;50669;50.982;11.022;2023-05-10T08:58:46;1.70;;;1.40;;
28836;SDS011;50669;50.982;11.022;2023-05-10T09:01:15;2.95;;;1.52;;
28836;SDS011;50669;50.982;11.022;2023-05-10T09:03:43;2.35;;;1.75;;
28836;SDS011;50669;50.982;11.022;2023-05-10T09:06:11;2.33;;;1.55;;
28836;SDS011;50669;50.982;11.022;2023-05-10T09:08:38;4.72;;;1.77;;
28836;SDS011;50669;50.982;11.022;2023-05-10T09:11:05;3.65;;;1.52;;
28836;SDS011;50669;50.982;11.022;2023-05-10T09:13:33;2.25;;;1.60;;
28836;SDS011;50669;50.982;11.022;2023-05-10T09:16:00;2.95;;;1.42;;
28836;SDS011;50669;50.982;11.022;2023-05-10T09:18:27;2.15;;;1.63;;
28836;SDS011;50669;50.982;11.022;2023-05-10T09:20:53;3.15;;;1.73;;
28836;SDS011;50669;50.982;11.022;2023-05-10T09:23:22;2.28;;;1.30;;
28836;SDS011;50669;50.982;11.022;2023-05-10T09:25:48;1.92;;;1.30;;
28836;SDS011;50669;50.982;11.022;2023-05-10T09:28:31;2.45;;;1.20;;
28836;SDS011;50669;50.982;11.022;2023-05-10T09:30:57;1.60;;;1.23;;
28836;SDS011;50669;50.982;11.022;2023-05-10T09:33:25;2.40;;;1.60;;
28836;SDS011;50669;50.982;11.022;2023-05-10T09:35:51;1.63;;;1.50;;
28836;SDS011;50669;50.982;11.022;2023-05-10T09:38:17;2.45;;;1.65;;
28836;SDS011;50669;50.982;11.022;2023-05-10T09:40:43;2.28;;;1.52;;
28836;SDS011;50669;50.982;11.022;2023-05-10T09:43:19;3.03;;;1.67;;
28836;SDS011;50669;50.982;11.022;2023-05-10T09:45:47;2.10;;;1.70;;
28836;SDS011;50669;50.982;11.022;2023-05-10T09:48:16;1.40;;;1.30;;
28836;SDS011;50669;50.982;11.022;2023-05-10T09:50:41;2.10;;;1.30;;
28836;SDS011;50669;50.982;11.022;2023-05-10T09:53:07;1.70;;;1.30;;
28836;SDS011;50669;50.982;11.022;2023-05-10T09:58:05;1.67;;;1.58;;
28836;SDS011;50669;50.982;11.022;2023-05-10T10:00:36;2.08;;;1.30;;
28836;SDS011;50669;50.982;11.022;2023-05-10T10:03:05;1.60;;;1.35;;
28836;SDS011;50669;50.982;11.022;2023-05-10T10:07:57;1.50;;;1.27;;
28836;SDS011;50669;50.982;11.022;2023-05-10T10:10:24;2.03;;;1.30;;
28836;SDS011;50669;50.982;11.022;2023-05-10T10:12:53;2.40;;;1.50;;
28836;SDS011;50669;50.982;11.022;2023-05-10T10:15:20;1.63;;;1.42;;
28836;SDS011;50669;50.982;11.022;2023-05-10T10:17:49;1.35;;;1.20;;
28836;SDS011;50669;50.982;11.022;2023-05-10T10:20:18;2.17;;;1.25;;
28836;SDS011;50669;50.982;11.022;2023-05-10T10:22:46;2.70;;;1.60;;
28836;SDS011;50669;50.982;11.022;2023-05-10T10:25:13;2.95;;;1.55;;
28836;SDS011;50669;50.982;11.022;2023-05-10T10:35:30;1.95;;;1.30;;
28836;SDS011;50669;50.982;11.022;2023-05-10T10:38:01;2.13;;;1.27;;
28836;SDS011;50669;50.982;11.022;2023-05-10T10:42:57;2.33;;;1.40;;
28836;SDS011;50669;50.982;11.022;2023-05-10T10:45:45;1.67;;;1.20;;
28836;SDS011;50669;50.982;11.022;2023-05-10T10:48:32;1.38;;;1.27;;
28836;SDS011;50669;50.982;11.022;2023-05-10T10:51:03;1.50;;;1.10;;
28836;SDS011;50669;50.982;11.022;2023-05-10T10:53:28;1.60;;;1.10;;
28836;SDS011;50669;50.982;11.022;2023-05-10T10:58:52;1.83;;;1.27;;
28836;SDS011;50669;50.982;11.022;2023-05-10T11:01:26;3.08;;;1.30;;
28836;SDS011;50669;50.982;11.022;2023-05-10T11:06:30;1.10;;;1.00;;
28836;SDS011;50669;50.982;11.022;2023-05-10T11:08:59;1.60;;;1.30;;
28836;SDS011;50669;50.982;11.022;2023-05-10T11:11:34;1.70;;;1.35;;
28836;SDS011;50669;50.982;11.022;2023-05-10T11:14:06;1.95;;;1.20;;
28836;SDS011;50669;50.982;11.022;2023-05-10T11:16:41;2.55;;;1.33;;
28836;SDS011;50669;50.982;11.022;2023-05-10T11:19:09;1.63;;;1.35;;
28836;SDS011;50669;50.982;11.022;2023-05-10T11:21:50;1.58;;;1.27;;
28836;SDS011;50669;50.982;11.022;2023-05-10T11:24:38;1.65;;;1.13;;
28836;SDS011;50669;50.982;11.022;2023-05-10T11:27:04;1.42;;;1.20;;
28836;SDS011;50669;50.982;11.022;2023-05-10T11:29:30;1.58;;;1.27;;
28836;SDS011;50669;50.982;11.022;2023-05-10T11:31:56;2.45;;;1.10;;
28836;SDS011;50669;50.982;11.022;2023-05-10T11:34:30;1.80;;;1.15;;
28836;SDS011;50669;50.982;11.022;2023-05-10T11:36:59;2.88;;;1.30;;
28836;SDS011;50669;50.982;11.022;2023-05-10T11:39:26;1.90;;;1.20;;
28836;SDS011;50669;50.982;11.022;2023-05-10T11:41:53;1.40;;;1.20;;
28836;SDS011;50669;50.982;11.022;2023-05-10T11:44:19;2.45;;;1.15;;
28836;SDS011;50669;50.982;11.022;2023-05-10T11:46:45;1.30;;;1.20;;
28836;SDS011;50669;50.982;11.022;2023-05-10T11:49:13;1.83;;;1.25;;
28836;SDS011;50669;50.982;11.022;2023-05-10T11:51:39;1.77;;;1.17;;
28836;SDS011;50669;50.982;11.022;2023-05-10T11:54:08;1.70;;;1.20;;
28836;SDS011;50669;50.982;11.022;2023-05-10T11:56:35;1.80;;;1.13;;
28836;SDS011;50669;50.982;11.022;2023-05-10T11:59:01;1.67;;;1.20;;
28836;SDS011;50669;50.982;11.022;2023-05-10T12:01:27;1.35;;;1.00;;
28836;SDS011;50669;50.982;11.022;2023-05-10T12:03:56;1.27;;;1.15;;
28836;SDS011;50669;50.982;11.022;2023-05-10T12:06:31;1.30;;;1.20;;
28836;SDS011;50669;50.982;11.022;2023-05-10T12:09:01;1.42;;;1.13;;
28836;SDS011;50669;50.982;11.022;2023-05-10T12:11:36;1.40;;;1.13;;
28836;SDS011;50669;50.982;11.022;2023-05-10T12:14:05;1.48;;;1.20;;
28836;SDS011;50669;50.982;11.022;2023-05-10T12:16:34;2.90;;;1.40;;
28836;SDS011;50669;50.982;11.022;2023-05-10T12:19:02;1.35;;;1.10;;
28836;SDS011;50669;50.982;11.022;2023-05-10T12:21:29;1.15;;;1.05;;
28836;SDS011;50669;50.982;11.022;2023-05-10T12:24:01;1.25;;;0.93;;
28836;SDS011;50669;50.982;11.022;2023-05-10T12:26:28;1.50;;;1.20;;
28836;SDS011;50669;50.982;11.022;2023-05-10T12:29:11;1.25;;;0.95;;
28836;SDS011;50669;50.982;11.022;2023-05-10T12:36:53;1.10;;;1.00;;
28836;SDS011;50669;50.982;11.022;2023-05-10T12:39:19;1.75;;;1.15;;
28836;SDS011;50669;50.982;11.022;2023-05-10T12:41:45;1.40;;;1.20;;
28836;SDS011;50669;50.982;11.022;2023-05-10T12:44:12;1.58;;;1.10;;
28836;SDS011;50669;50.982;11.022;2023-05-10T12:46:40;1.70;;;1.17;;
28836;SDS011;50669;50.982;11.022;2023-05-10T12:49:08;1.92;;;1.00;;
28836;SDS011;50669;50.982;11.022;2023-05-10T12:51:39;1.08;;;0.90;;
28836;SDS011;50669;50.982;11.022;2023-05-10T12:54:04;1.65;;;1.15;;
28836;SDS011;50669;50.982;11.022;2023-05-10T12:56:34;1.35;;;1.20;;
28836;SDS011;50669;50.982;11.022;2023-05-10T12:59:00;2.38;;;1.10;;
28836;SDS011;50669;50.982;11.022;2023-05-10T13:01:26;1.55;;;1.25;;
28836;SDS011;50669;50.982;11.022;2023-05-10T13:03:53;1.33;;;1.20;;
28836;SDS011;50669;50.982;11.022;2023-05-10T13:06:22;1.70;;;1.00;;
28836;SDS011;50669;50.982;11.022;2023-05-10T13:08:47;1.38;;;1.25;;
28836;SDS011;50669;50.982;11.022;2023-05-10T13:11:13;1.05;;;0.98;;
28836;SDS011;50669;50.982;11.022;2023-05-10T13:13:41;1.40;;;0.93;;
28836;SDS011;50669;50.982;11.022;2023-05-10T13:16:09;1.85;;;1.45;;
28836;SDS011;50669;50.982;11.022;2023-05-10T13:18:35;1.20;;;0.82;;
28836;SDS011;50669;50.982;11.022;2023-05-10T13:21:00;1.30;;;1.10;;
28836;SDS011;50669;50.982;11.022;2023-05-10T13:23:30;1.40;;;1.10;;
28836;SDS011;50669;50.982;11.022;2023-05-10T13:25:58;1.15;;;0.95;;
28836;SDS011;50669;50.982;11.022;2023-05-10T13:28:26;1.90;;;1.08;;
28836;SDS011;50669;50.982;11.022;2023-05-10T13:30:51;1.27;;;1.00;;
28836;SDS011;50669;50.982;11.022;2023-05-10T13:33:17;1.40;;;1.08;;
28836;SDS011;50669;50.982;11.022;2023-05-10T13:35:43;1.40;;;1.02;;
28836;SDS011;50669;50.982;11.022;2023-05-10T13:38:11;1.70;;;1.23;;
28836;SDS011;50669;50.982;11.022;2023-05-10T13:40:37;1.05;;;0.95;;
28836;SDS011;50669;50.982;11.022;2023-05-10T13:43:03;3.28;;;1.20;;
28836;SDS011;50669;50.982;11.022;2023-05-10T13:45:33;1.50;;;0.93;;
28836;SDS011;50669;50.982;11.022;2023-05-10T13:47:59;1.55;;;1.20;;
28836;SDS011;50669;50.982;11.022;2023-05-10T13:50:25;1.95;;;1.15;;
28836;SDS011;50669;50.982;11.022;2023-05-10T13:52:53;1.20;;;0.90;;
28836;SDS011;50669;50.982;11.022;2023-05-10T13:55:19;1.33;;;1.08;;
28836;SDS011;50669;50.982;11.022;2023-05-10T13:57:47;1.58;;;0.90;;
28836;SDS011;50669;50.982;11.022;2023-05-10T14:00:15;1.10;;;0.82;;
28836;SDS011;50669;50.982;11.022;2023-05-10T14:02:41;2.10;;;1.00;;
28836;SDS011;50669;50.982;11.022;2023-05-10T14:05:07;1.20;;;0.95;;
28836;SDS011;50669;50.982;11.022;2023-05-10T14:07:32;1.70;;;1.05;;
28836;SDS011;50669;50.982;11.022;2023-05-10T14:09:58;0.93;;;0.88;;
28836;SDS011;50669;50.982;11.022;2023-05-10T14:12:24;1.35;;;0.85;;
28836;SDS011;50669;50.982;11.022;2023-05-10T14:14:52;2.00;;;1.02;;
28836;SDS011;50669;50.982;11.022;2023-05-10T14:17:19;1.50;;;0.82;;
28836;SDS011;50669;50.982;11.022;2023-05-10T14:19:47;1.45;;;0.98;;
28836;SDS011;50669;50.982;11.022;2023-05-10T14:22:15;1.08;;;0.95;;
28836;SDS011;50669;50.982;11.022;2023-05-10T14:24:41;1.13;;;1.02;;
28836;SDS011;50669;50.982;11.022;2023-05-10T14:27:08;1.20;;;1.00;;
28836;SDS011;50669;50.982;11.022;2023-05-10T14:29:33;1.10;;;0.85;;
28836;SDS011;50669;50.982;11.022;2023-05-10T14:31:59;1.75;;;1.00;;
28836;SDS011;50669;50.982;11.022;2023-05-10T14:34:27;1.83;;;1.13;;
28836;SDS011;50669;50.982;11.022;2023-05-10T14:36:55;0.75;;;0.70;;
28836;SDS011;50669;50.982;11.022;2023-05-10T14:39:21;1.27;;;0.85;;
28836;SDS011;50669;50.982;11.022;2023-05-10T14:41:47;1.42;;;1.00;;
28836;SDS011;50669;50.982;11.022;2023-05-10T14:44:16;1.52;;;0.90;;
28836;SDS011;50669;50.982;11.022;2023-05-10T14:46:42;1.00;;;0.90;;
28836;SDS011;50669;50.982;11.022;2023-05-10T14:49:07;1.10;;;0.90;;
28836;SDS011;50669;50.982;11.022;2023-05-10T14:51:33;1.30;;;1.00;;
28836;SDS011;50669;50.982;11.022;2023-05-10T14:54:04;0.80;;;0.80;;
28836;SDS011;50669;50.982;11.022;2023-05-10T14:56:29;1.30;;;0.95;;
28836;SDS011;50669;50.982;11.022;2023-05-10T14:58:55;1.00;;;0.90;;
28836;SDS011;50669;50.982;11.022;2023-05-10T15:01:20;0.95;;;0.80;;
28836;SDS011;50669;50.982;11.022;2023-05-10T15:03:46;1.00;;;0.90;;
28836;SDS011;50669;50.982;11.022;2023-05-10T15:06:13;0.98;;;0.88;;
28836;SDS011;50669;50.982;11.022;2023-05-10T15:08:39;1.13;;;1.02;;
28836;SDS011;50669;50.982;11.022;2023-05-10T15:11:05;0.82;;;0.70;;
28836;SDS011;50669;50.982;11.022;2023-05-10T15:13:30;1.13;;;0.98;;
28836;SDS011;50669;50.982;11.022;2023-05-10T15:15:56;1.02;;;0.93;;
28836;SDS011;50669;50.982;11.022;2023-05-10T15:18:22;1.10;;;1.00;;
28836;SDS011;50669;50.982;11.022;2023-05-10T15:20:47;1.20;;;1.10;;